Time;durP1;ratioP1;P1;durP2;ratioP2;P2;SDS_P1;SDS_P2;PMS_P1;PMS_P2;Temp;Humidity;BMP_temperature;BMP_pressure;BME280_temperature;BME280_humidity;BME280_pressure;Samples;Min_cycle;Max_cycle;Signal;HPM_P1;HPM_P2
2022/01/12 00:00:17;;;;;;;36.90;11.50;;;;;;;;;;5054644;28;20060;-73
2022/01/12 00:02:42;;;;;;;34.60;11.32;;;;;;;;;;5054871;28;20029;-73
2022/01/12 00:05:08;;;;;;;33.20;11.03;;;;;;;;;;5054658;28;20087;-74
2022/01/12 00:07:33;;;;;;;55.17;13.40;;;;;;;;;;5071451;28;20136;-74
2022/01/12 00:09:59;;;;;;;82.20;14.90;;;;;;;;;;5055848;28;20501;-73
2022/01/12 00:12:26;;;;;;;35.17;10.83;;;;;;;;;;5055383;28;20028;-74
2022/01/12 00:14:52;;;;;;;40.85;10.93;;;;;;;;;;5055781;28;20040;-73
2022/01/12 00:17:17;;;;;;;46.05;12.90;;;;;;;;;;5054442;28;20025;-75
2022/01/12 00:19:43;;;;;;;32.50;9.67;;;;;;;;;;5055310;28;20040;-73
2022/01/12 00:22:08;;;;;;;58.57;14.67;;;;;;;;;;5055591;28;20088;-74
2022/01/12 00:25:03;;;;;;;38.00;11.10;;;;;;;;;;5055175;28;20067;-71
2022/01/12 00:33:13;;;;;;;35.13;9.85;;;;;;;;;;5054962;28;20040;-73
2022/01/12 00:35:58;;;;;;;44.17;11.98;;;;;;;;;;5048906;28;20112;-73
2022/01/12 00:38:29;;;;;;;54.03;12.85;;;;;;;;;;5054014;28;20064;-73
2022/01/12 00:40:54;;;;;;;105.50;16.38;;;;;;;;;;5055136;28;20029;-73
2022/01/12 00:43:21;;;;;;;48.23;13.57;;;;;;;;;;5054456;28;20529;-73
2022/01/12 00:45:47;;;;;;;38.78;10.75;;;;;;;;;;5055019;28;20021;-73
2022/01/12 00:48:14;;;;;;;39.15;10.07;;;;;;;;;;5055171;28;20033;-71
2022/01/12 00:50:40;;;;;;;47.92;10.80;;;;;;;;;;5053826;28;20041;-71
2022/01/12 00:53:07;;;;;;;37.75;12.32;;;;;;;;;;5070678;28;20060;-71
2022/01/12 00:55:33;;;;;;;34.63;9.88;;;;;;;;;;5053689;28;20037;-71
2022/01/12 00:57:58;;;;;;;37.38;12.75;;;;;;;;;;5052400;28;20032;-71
2022/01/12 01:00:26;;;;;;;33.47;10.40;;;;;;;;;;5054732;28;20120;-73
2022/01/12 01:02:51;;;;;;;34.15;9.60;;;;;;;;;;5053567;28;20514;-73
2022/01/12 01:05:21;;;;;;;53.17;10.17;;;;;;;;;;5052724;28;20108;-73
2022/01/12 01:07:47;;;;;;;42.03;11.48;;;;;;;;;;5053730;28;20021;-73
2022/01/12 01:10:18;;;;;;;52.90;12.52;;;;;;;;;;5050955;28;20389;-73
2022/01/12 01:12:45;;;;;;;47.03;12.98;;;;;;;;;;5054744;28;20033;-72
2022/01/12 01:15:14;;;;;;;38.40;11.93;;;;;;;;;;5052527;28;20037;-72
2022/01/12 01:25:49;;;;;;;38.60;9.90;;;;;;;;;;5054025;28;20043;-72
2022/01/12 01:28:15;;;;;;;;;;;;;;;;;;5053578;28;20045;-72
2022/01/12 01:30:42;;;;;;;26.98;8.70;;;;;;;;;;5053040;28;19924;-74
2022/01/12 01:33:09;;;;;;;31.05;9.82;;;;;;;;;;5054391;28;20393;-73
2022/01/12 01:35:37;;;;;;;35.55;9.60;;;;;;;;;;5052634;28;20554;-74
2022/01/12 01:38:03;;;;;;;30.80;8.77;;;;;;;;;;5052974;28;20033;-73
2022/01/12 01:40:30;;;;;;;44.45;9.82;;;;;;;;;;5054199;28;20147;-74
2022/01/12 01:53:40;;;;;;;29.65;8.80;;;;;;;;;;5052782;28;20048;-73
2022/01/12 01:56:07;;;;;;;45.37;11.90;;;;;;;;;;5053672;28;20041;-73
2022/01/12 01:58:33;;;;;;;36.15;8.57;;;;;;;;;;5052133;28;20025;-73
2022/01/12 02:00:59;;;;;;;30.90;9.60;;;;;;;;;;5052755;28;20032;-74
2022/01/12 02:03:27;;;;;;;37.53;10.57;;;;;;;;;;5052503;28;20048;-73
2022/01/12 02:05:53;;;;;;;37.22;9.55;;;;;;;;;;5053571;28;20061;-73
2022/01/12 02:08:18;;;;;;;25.63;8.23;;;;;;;;;;5053723;28;20056;-73
2022/01/12 02:10:43;;;;;;;17.83;8.07;;;;;;;;;;5053470;28;20087;-73
2022/01/12 02:13:10;;;;;;;28.33;9.13;;;;;;;;;;5053582;28;20040;-74
2022/01/12 02:15:37;;;;;;;30.63;10.25;;;;;;;;;;5053514;28;20025;-71
2022/01/12 02:18:11;;;;;;;25.52;9.23;;;;;;;;;;5047894;28;20099;-71
2022/01/12 02:40:38;;;;;;;25.25;7.80;;;;;;;;;;5043104;28;20555;-72
2022/01/12 02:53:44;;;;;;;20.92;8.40;;;;;;;;;;5020486;28;20447;-72
2022/01/12 02:56:12;;;;;;;33.30;9.98;;;;;;;;;;5052855;28;20108;-72
2022/01/12 02:58:39;;;;;;;29.90;9.57;;;;;;;;;;5051566;28;20029;-72
2022/01/12 03:03:52;;;;;;;28.73;8.35;;;;;;;;;;5046057;28;20056;-72
2022/01/12 03:06:21;;;;;;;29.63;8.80;;;;;;;;;;5055678;28;20064;-72
2022/01/12 03:08:47;;;;;;;32.00;8.95;;;;;;;;;;5055902;28;20041;-72
2022/01/12 03:11:15;;;;;;;20.63;6.88;;;;;;;;;;5055694;28;20033;-73
2022/01/12 03:13:41;;;;;;;22.98;9.25;;;;;;;;;;5056668;28;20049;-72
2022/01/12 03:16:15;;;;;;;31.57;8.33;;;;;;;;;;5055622;28;20041;-72
2022/01/12 03:18:42;;;;;;;21.92;7.97;;;;;;;;;;5055716;28;20269;-72
2022/01/12 03:21:08;;;;;;;30.67;6.85;;;;;;;;;;5055408;28;20043;-72
2022/01/12 03:23:33;;;;;;;26.67;8.13;;;;;;;;;;5055227;28;20048;-72
2022/01/12 03:25:59;;;;;;;29.27;7.50;;;;;;;;;;5055649;28;20098;-72
2022/01/12 03:28:24;;;;;;;23.07;7.77;;;;;;;;;;5056552;28;20098;-72
2022/01/12 03:31:08;;;;;;;26.57;8.30;;;;;;;;;;5055377;28;20033;-72
2022/01/12 03:38:46;;;;;;;18.48;7.15;;;;;;;;;;5055493;28;20098;-72
2022/01/12 03:41:12;;;;;;;23.03;7.10;;;;;;;;;;5056415;28;20033;-72
2022/01/12 03:43:37;;;;;;;27.20;8.73;;;;;;;;;;5056310;28;20033;-72
2022/01/12 03:46:03;;;;;;;18.57;7.17;;;;;;;;;;5056317;28;20381;-72
2022/01/12 03:48:28;;;;;;;31.40;8.70;;;;;;;;;;5056207;28;20477;-73
2022/01/12 03:50:56;;;;;;;27.47;6.70;;;;;;;;;;5056372;28;20381;-72
2022/01/12 03:53:22;;;;;;;20.48;7.90;;;;;;;;;;5055135;28;20029;-73
2022/01/12 03:55:47;;;;;;;26.00;7.07;;;;;;;;;;5054876;28;20029;-72
2022/01/12 03:58:13;;;;;;;19.63;6.67;;;;;;;;;;5056050;28;20037;-72
2022/01/12 04:00:38;;;;;;;24.37;7.17;;;;;;;;;;5056165;28;20032;-72
2022/01/12 04:03:06;;;;;;;22.93;7.63;;;;;;;;;;5055958;28;20130;-72
2022/01/12 04:08:19;;;;;;;19.48;6.63;;;;;;;;;;5055912;28;20028;-72
2022/01/12 04:10:48;;;;;;;27.67;7.00;;;;;;;;;;5055660;28;20041;-72
2022/01/12 04:13:15;;;;;;;22.27;6.45;;;;;;;;;;5055884;28;20028;-73
2022/01/12 04:15:44;;;;;;;21.35;7.40;;;;;;;;;;5055622;28;20076;-72
2022/01/12 04:18:10;;;;;;;19.40;6.45;;;;;;;;;;5055806;28;20056;-72
2022/01/12 04:20:44;;;;;;;19.57;6.83;;;;;;;;;;5054422;28;20025;-71
2022/01/12 04:23:18;;;;;;;23.20;6.93;;;;;;;;;;5046207;28;20049;-71
2022/01/12 04:25:56;;;;;;;30.40;7.47;;;;;;;;;;5055437;28;20031;-71
2022/01/12 04:28:23;;;;;;;20.77;7.00;;;;;;;;;;5054287;28;20048;-72
2022/01/12 04:30:50;;;;;;;16.33;6.15;;;;;;;;;;5054084;28;20535;-71
2022/01/12 04:33:17;;;;;;;17.90;6.70;;;;;;;;;;5054196;28;20071;-73
2022/01/12 04:35:48;;;;;;;19.33;7.10;;;;;;;;;;5054109;28;20428;-71
2022/01/12 04:38:16;;;;;;;19.05;6.32;;;;;;;;;;5054986;28;20469;-72
2022/01/12 04:40:42;;;;;;;20.52;6.53;;;;;;;;;;5055240;28;20047;-71
2022/01/12 04:43:08;;;;;;;24.37;7.90;;;;;;;;;;5055314;28;20116;-71
2022/01/12 04:48:09;;;;;;;20.70;6.88;;;;;;;;;;5055229;28;20052;-72
2022/01/12 04:50:37;;;;;;;14.30;6.03;;;;;;;;;;5053912;28;20106;-71
2022/01/12 04:53:06;;;;;;;17.23;6.05;;;;;;;;;;5054006;28;20041;-71
2022/01/12 04:55:31;;;;;;;22.60;6.53;;;;;;;;;;5054908;28;20124;-72
2022/01/12 04:57:56;;;;;;;25.07;7.23;;;;;;;;;;5055114;28;20103;-72
2022/01/12 05:00:23;;;;;;;23.20;7.17;;;;;;;;;;5054940;28;20043;-71
2022/01/12 05:13:39;;;;;;;17.55;5.57;;;;;;;;;;5048585;28;20110;-71
2022/01/12 05:16:05;;;;;;;;;;;;;;;;;;5053563;28;20462;-71
2022/01/12 05:18:33;;;;;;;25.35;6.65;;;;;;;;;;5054568;28;19919;-71
2022/01/12 05:20:58;;;;;;;17.50;5.80;;;;;;;;;;5053505;28;20025;-72
2022/01/12 05:23:24;;;;;;;20.50;5.70;;;;;;;;;;5054091;28;20052;-72
2022/01/12 05:25:51;;;;;;;17.07;5.63;;;;;;;;;;5054003;28;20036;-71
2022/01/12 05:28:17;;;;;;;21.27;5.72;;;;;;;;;;5053966;28;20053;-71
2022/01/12 05:30:43;;;;;;;13.80;5.63;;;;;;;;;;5054421;28;20516;-74
2022/01/12 05:33:09;;;;;;;16.73;6.50;;;;;;;;;;5063692;28;20041;-74
2022/01/12 05:35:35;;;;;;;20.17;5.55;;;;;;;;;;5046303;28;20673;-74
2022/01/12 05:38:01;;;;;;;11.87;4.83;;;;;;;;;;5048591;28;20037;-74
2022/01/12 05:40:27;;;;;;;16.60;6.05;;;;;;;;;;5053090;28;20040;-74
2022/01/12 05:42:54;;;;;;;16.97;5.00;;;;;;;;;;5053753;28;20035;-70
2022/01/12 05:45:20;;;;;;;18.67;6.05;;;;;;;;;;5052776;28;20040;-71
2022/01/12 05:50:12;;;;;;;18.67;5.53;;;;;;;;;;5053832;28;20258;-71
2022/01/12 05:52:38;;;;;;;27.90;5.72;;;;;;;;;;5053723;28;20029;-71
2022/01/12 05:55:04;;;;;;;19.70;5.87;;;;;;;;;;5053671;28;20048;-71
2022/01/12 05:57:30;;;;;;;;;;;;;;;;;;5043675;28;20025;-71
2022/01/12 05:59:56;;;;;;;11.68;5.28;;;;;;;;;;5053545;28;20278;-72
2022/01/12 06:02:22;;;;;;;12.73;5.43;;;;;;;;;;5053923;28;20078;-74
2022/01/12 06:04:47;;;;;;;18.40;5.17;;;;;;;;;;5053781;28;20029;-73
2022/01/12 06:07:13;;;;;;;17.90;4.97;;;;;;;;;;5052356;28;20028;-73
2022/01/12 06:09:38;;;;;;;27.80;5.90;;;;;;;;;;5053694;28;20055;-74
2022/01/12 06:12:04;;;;;;;35.83;7.13;;;;;;;;;;5052285;28;20032;-71
2022/01/12 06:14:30;;;;;;;28.27;6.33;;;;;;;;;;5053372;28;20036;-71
2022/01/12 06:16:56;;;;;;;23.58;7.70;;;;;;;;;;5052275;28;20029;-71
2022/01/12 06:19:21;;;;;;;23.93;5.73;;;;;;;;;;5052227;28;20528;-71
2022/01/12 06:21:47;;;;;;;24.00;5.40;;;;;;;;;;5053295;28;20090;-71
2022/01/12 06:24:12;;;;;;;25.77;8.87;;;;;;;;;;5051418;28;20033;-71
2022/01/12 06:26:38;;;;;;;18.37;5.07;;;;;;;;;;5053322;28;20043;-71
2022/01/12 06:30:01;;;;;;;23.13;5.43;;;;;;;;;;5053354;28;20527;-71
2022/01/12 06:31:51;;;;;;;20.38;4.85;;;;;;;;;;5046193;28;20051;-71
2022/01/12 06:34:17;;;;;;;18.95;5.35;;;;;;;;;;5051637;28;20489;-71
2022/01/12 06:36:43;;;;;;;20.90;5.47;;;;;;;;;;5051878;28;20055;-71
2022/01/12 06:39:10;;;;;;;18.87;5.17;;;;;;;;;;5052805;28;20079;-71
2022/01/12 06:41:37;;;;;;;24.30;5.38;;;;;;;;;;5052726;28;20028;-71
2022/01/12 06:44:03;;;;;;;19.63;5.57;;;;;;;;;;5052112;28;20033;-71
2022/01/12 06:46:31;;;;;;;22.83;5.07;;;;;;;;;;5051216;28;20065;-72
2022/01/12 06:48:56;;;;;;;22.58;4.45;;;;;;;;;;5052999;28;20536;-71
2022/01/12 06:51:22;;;;;;;14.30;4.90;;;;;;;;;;5052868;28;20123;-70
2022/01/12 06:53:47;;;;;;;17.17;5.03;;;;;;;;;;5051825;28;20164;-71
2022/01/12 06:56:17;;;;;;;22.13;4.83;;;;;;;;;;5052587;28;20111;-71
2022/01/12 06:58:43;;;;;;;20.55;4.93;;;;;;;;;;5051818;28;20110;-71
2022/01/12 07:01:08;;;;;;;13.43;4.45;;;;;;;;;;5050533;28;20028;-71
2022/01/12 07:03:34;;;;;;;15.37;4.90;;;;;;;;;;5051665;28;20524;-71
2022/01/12 07:05:59;;;;;;;20.07;5.00;;;;;;;;;;5052788;28;20044;-71
2022/01/12 07:08:25;;;;;;;20.23;5.30;;;;;;;;;;5052831;28;20358;-71
2022/01/12 07:10:50;;;;;;;14.07;3.77;;;;;;;;;;5051717;28;20158;-71
2022/01/12 07:13:16;;;;;;;11.30;4.73;;;;;;;;;;5052765;28;20037;-71
2022/01/12 07:15:42;;;;;;;23.87;5.73;;;;;;;;;;5052904;28;20025;-71
2022/01/12 07:18:08;;;;;;;14.85;4.65;;;;;;;;;;5052820;28;20033;-71
2022/01/12 07:20:33;;;;;;;17.10;4.85;;;;;;;;;;5051343;28;20048;-71
2022/01/12 07:22:59;;;;;;;13.37;4.57;;;;;;;;;;5051469;28;20045;-71
2022/01/12 07:25:24;;;;;;;17.77;5.30;;;;;;;;;;5052373;28;20396;-71
2022/01/12 07:27:50;;;;;;;16.53;4.47;;;;;;;;;;5052603;28;20389;-71
2022/01/12 07:30:15;;;;;;;16.43;5.03;;;;;;;;;;5051580;28;20024;-74
2022/01/12 07:32:41;;;;;;;18.17;5.93;;;;;;;;;;5052559;28;20029;-73
2022/01/12 07:35:06;;;;;;;21.23;5.40;;;;;;;;;;5052558;28;20123;-73
2022/01/12 07:37:32;;;;;;;22.40;4.60;;;;;;;;;;5052463;28;20031;-73
2022/01/12 07:39:58;;;;;;;10.50;4.23;;;;;;;;;;5051656;28;20029;-73
2022/01/12 07:42:24;;;;;;;18.67;4.90;;;;;;;;;;5052424;28;20545;-73
2022/01/12 07:44:50;;;;;;;11.83;3.80;;;;;;;;;;5051361;28;20071;-71
2022/01/12 07:47:15;;;;;;;23.00;4.83;;;;;;;;;;5052541;28;20689;-71
2022/01/12 07:49:41;;;;;;;19.73;4.37;;;;;;;;;;5067826;28;20627;-71
2022/01/12 07:52:07;;;;;;;22.07;4.40;;;;;;;;;;5053335;28;20478;-71
2022/01/12 07:54:32;;;;;;;16.43;4.47;;;;;;;;;;5070791;28;20029;-71
2022/01/12 07:56:57;;;;;;;11.13;3.93;;;;;;;;;;5052915;28;20095;-72
2022/01/12 07:59:23;;;;;;;14.33;3.90;;;;;;;;;;5053210;28;20029;-71
2022/01/12 08:01:48;;;;;;;12.43;4.47;;;;;;;;;;5053334;28;20052;-71
2022/01/12 08:04:14;;;;;;;17.67;4.27;;;;;;;;;;5055565;28;20059;-71
2022/01/12 08:06:39;;;;;;;12.20;3.93;;;;;;;;;;5053865;28;20483;-72
2022/01/12 08:09:07;;;;;;;17.33;4.53;;;;;;;;;;5052170;28;20092;-71
2022/01/12 08:11:33;;;;;;;21.17;5.20;;;;;;;;;;5055445;28;20040;-71
2022/01/12 08:13:58;;;;;;;19.42;4.82;;;;;;;;;;5070843;28;20104;-71
2022/01/12 08:16:24;;;;;;;12.70;4.80;;;;;;;;;;5054928;28;20513;-72
2022/01/12 08:18:49;;;;;;;22.80;5.67;;;;;;;;;;5070433;28;20037;-71
2022/01/12 08:21:14;;;;;;;13.00;3.90;;;;;;;;;;5054907;28;20032;-71
2022/01/12 08:23:40;;;;;;;16.43;4.40;;;;;;;;;;5053529;28;20049;-71
2022/01/12 08:26:06;;;;;;;17.87;4.90;;;;;;;;;;5068145;28;20047;-72
2022/01/12 08:28:31;;;;;;;15.10;5.35;;;;;;;;;;5053920;28;20457;-71
2022/01/12 08:30:57;;;;;;;16.93;5.33;;;;;;;;;;5055754;28;20039;-71
2022/01/12 08:33:22;;;;;;;19.97;5.20;;;;;;;;;;5055426;28;20493;-71
2022/01/12 08:35:47;;;;;;;12.30;4.57;;;;;;;;;;5055414;28;20505;-71
2022/01/12 08:38:13;;;;;;;12.03;3.23;;;;;;;;;;5055418;28;20052;-71
2022/01/12 08:40:39;;;;;;;23.20;5.60;;;;;;;;;;5055189;28;20037;-71
2022/01/12 08:43:05;;;;;;;15.10;4.30;;;;;;;;;;5048405;28;20036;-74
2022/01/12 08:45:31;;;;;;;16.33;4.53;;;;;;;;;;5052422;28;20392;-73
2022/01/12 08:47:56;;;;;;;11.73;4.63;;;;;;;;;;5053600;28;20792;-74
2022/01/12 08:50:22;;;;;;;13.13;4.07;;;;;;;;;;5053602;28;20115;-74
2022/01/12 08:52:47;;;;;;;11.17;4.83;;;;;;;;;;5052518;28;20029;-72
2022/01/12 08:55:16;;;;;;;20.03;5.07;;;;;;;;;;5054104;28;20086;-73
2022/01/12 08:57:41;;;;;;;18.10;5.22;;;;;;;;;;5062500;28;20527;-73
2022/01/12 09:00:08;;;;;;;23.37;7.33;;;;;;;;;;5043974;28;20029;-74
2022/01/12 09:02:33;;;;;;;27.92;6.28;;;;;;;;;;5051462;28;20116;-75
2022/01/12 09:04:58;;;;;;;13.40;4.40;;;;;;;;;;5051882;28;20469;-74
2022/01/12 09:07:24;;;;;;;17.03;5.30;;;;;;;;;;5053819;28;20029;-74
2022/01/12 09:09:50;;;;;;;15.93;5.67;;;;;;;;;;5053175;28;20029;-74
2022/01/12 09:12:15;;;;;;;19.20;5.50;;;;;;;;;;5054452;28;20021;-74
2022/01/12 09:14:42;;;;;;;21.20;5.20;;;;;;;;;;5052812;28;20079;-72
2022/01/12 09:17:23;;;;;;;22.75;5.35;;;;;;;;;;5049722;28;20474;-73
2022/01/12 09:19:51;;;;;;;31.20;7.60;;;;;;;;;;5051115;28;20033;-73
2022/01/12 09:22:16;;;;;;;131.20;20.30;;;;;;;;;;5051270;28;20049;-74
2022/01/12 09:24:44;;;;;;;204.63;27.57;;;;;;;;;;5052254;28;20060;-74
2022/01/12 09:27:10;;;;;;;497.08;62.17;;;;;;;;;;5052279;28;20473;-75
2022/01/12 09:29:36;;;;;;;20.77;5.40;;;;;;;;;;5052012;28;20051;-74
2022/01/12 09:32:01;;;;;;;70.70;11.33;;;;;;;;;;5067437;28;20123;-72
2022/01/12 09:34:27;;;;;;;128.30;22.60;;;;;;;;;;5053812;28;20029;-72
2022/01/12 09:36:52;;;;;;;70.93;14.57;;;;;;;;;;5051823;28;20037;-74
2022/01/12 09:39:18;;;;;;;60.60;11.83;;;;;;;;;;5044318;28;20021;-72
2022/01/12 09:41:43;;;;;;;446.17;58.90;;;;;;;;;;5064495;28;20033;-72
2022/01/12 09:44:09;;;;;;;79.77;14.77;;;;;;;;;;5053871;28;20060;-72
2022/01/12 09:46:34;;;;;;;100.60;24.67;;;;;;;;;;5054043;28;20029;-72
2022/01/12 09:49:01;;;;;;;16.70;6.63;;;;;;;;;;5053978;28;20036;-74
2022/01/12 09:51:27;;;;;;;420.17;46.22;;;;;;;;;;5051822;28;20047;-74
2022/01/12 09:53:52;;;;;;;36.83;8.23;;;;;;;;;;5052440;28;20033;-74
2022/01/12 09:56:21;;;;;;;44.30;8.80;;;;;;;;;;5052111;28;20040;-74
2022/01/12 09:58:50;;;;;;;953.38;139.35;;;;;;;;;;5051706;28;20524;-74
2022/01/12 10:01:23;;;;;;;54.22;19.77;;;;;;;;;;5053453;28;20037;-71
2022/01/12 10:03:48;;;;;;;158.60;42.92;;;;;;;;;;5053337;28;20040;-71
2022/01/12 10:06:15;;;;;;;40.67;20.53;;;;;;;;;;5053310;28;20033;-71
2022/01/12 10:08:40;;;;;;;;;;;;;;;;;;5053086;28;20424;-71
2022/01/12 10:11:14;;;;;;;10.95;3.80;;;;;;;;;;5053497;28;19962;-71
2022/01/12 10:13:42;;;;;;;10.77;4.28;;;;;;;;;;5027318;28;20037;-71
2022/01/12 10:16:15;;;;;;;18.63;6.13;;;;;;;;;;5052392;28;20033;-72
2022/01/12 10:18:51;;;;;;;15.45;4.57;;;;;;;;;;5052094;28;20040;-71
2022/01/12 10:21:29;;;;;;;15.63;4.10;;;;;;;;;;5052187;28;20090;-71
2022/01/12 10:23:59;;;;;;;9.82;3.70;;;;;;;;;;5052930;28;20051;-71
2022/01/12 10:26:29;;;;;;;10.82;3.55;;;;;;;;;;5052045;28;20075;-71
2022/01/12 10:29:06;;;;;;;17.05;3.92;;;;;;;;;;5053396;28;20083;-71
2022/01/12 10:31:42;;;;;;;14.75;4.65;;;;;;;;;;5052565;28;20071;-72
2022/01/12 10:34:08;;;;;;;11.73;3.47;;;;;;;;;;5039271;28;20067;-72
2022/01/12 10:36:41;;;;;;;13.40;4.23;;;;;;;;;;5052544;28;20543;-71
2022/01/12 10:39:11;;;;;;;13.98;3.88;;;;;;;;;;5053004;28;20041;-72
2022/01/12 10:41:57;;;;;;;16.95;4.32;;;;;;;;;;5039921;28;20036;-73
2022/01/12 10:44:34;;;;;;;17.27;5.45;;;;;;;;;;5051726;28;20053;-72
2022/01/12 10:47:09;;;;;;;16.00;4.25;;;;;;;;;;5051720;28;20051;-73
2022/01/12 10:49:36;;;;;;;15.93;5.95;;;;;;;;;;5052872;28;20043;-72
2022/01/12 10:52:04;;;;;;;15.68;5.70;;;;;;;;;;5051412;28;20080;-72
2022/01/12 10:54:29;;;;;;;22.30;8.02;;;;;;;;;;5051723;28;20558;-73
2022/01/12 10:56:55;;;;;;;23.03;6.97;;;;;;;;;;5051893;28;20028;-72
2022/01/12 10:59:21;;;;;;;38.23;10.87;;;;;;;;;;5049884;28;20449;-72
2022/01/12 11:01:47;;;;;;;22.80;10.07;;;;;;;;;;5048381;28;20076;-72
2022/01/12 11:04:13;;;;;;;28.77;10.57;;;;;;;;;;5051359;28;20063;-75
2022/01/12 11:06:39;;;;;;;23.37;9.67;;;;;;;;;;5052635;28;20043;-74
2022/01/12 11:09:05;;;;;;;21.10;9.90;;;;;;;;;;5044863;28;20151;-75
2022/01/12 11:11:31;;;;;;;22.88;8.73;;;;;;;;;;5051448;28;20041;-74
2022/01/12 11:13:57;;;;;;;28.57;10.33;;;;;;;;;;5047103;28;20095;-75
2022/01/12 11:16:25;;;;;;;27.77;9.73;;;;;;;;;;5047901;28;20500;-73
2022/01/12 11:18:52;;;;;;;24.13;9.40;;;;;;;;;;5048518;28;20032;-74
2022/01/12 11:21:20;;;;;;;25.35;10.60;;;;;;;;;;5049843;28;20485;-73
2022/01/12 11:23:46;;;;;;;23.77;11.38;;;;;;;;;;5041362;28;20045;-74
2022/01/12 11:26:45;;;;;;;26.45;9.40;;;;;;;;;;5049799;28;20044;-74
2022/01/12 11:29:11;;;;;;;19.05;9.63;;;;;;;;;;5051488;28;20041;-75
2022/01/12 11:31:38;;;;;;;32.93;10.57;;;;;;;;;;5052173;28;20032;-74
2022/01/12 11:34:03;;;;;;;20.45;9.68;;;;;;;;;;5049311;28;20029;-73
2022/01/12 11:36:37;;;;;;;25.63;9.70;;;;;;;;;;5049115;28;20697;-73
2022/01/12 11:39:07;;;;;;;23.98;9.88;;;;;;;;;;5064471;28;20489;-74
2022/01/12 11:41:34;;;;;;;30.30;10.00;;;;;;;;;;5050954;28;20393;-75
2022/01/12 11:44:05;;;;;;;31.02;9.85;;;;;;;;;;5050978;28;20037;-74
2022/01/12 11:46:54;;;;;;;26.48;10.80;;;;;;;;;;5049743;28;20470;-74
2022/01/12 11:49:31;;;;;;;27.20;10.43;;;;;;;;;;5043657;28;20041;-74
2022/01/12 11:51:59;;;;;;;25.58;10.70;;;;;;;;;;5050845;28;20072;-78
2022/01/12 11:54:33;;;;;;;27.45;11.50;;;;;;;;;;5048463;28;20037;-74
2022/01/12 11:57:04;;;;;;;27.75;10.95;;;;;;;;;;5050534;28;20068;-78
2022/01/12 11:59:39;;;;;;;25.60;11.10;;;;;;;;;;5050554;28;20037;-79
2022/01/12 12:02:14;;;;;;;30.55;10.70;;;;;;;;;;5040938;28;20083;-74
2022/01/12 12:04:58;;;;;;;25.15;11.18;;;;;;;;;;5050347;28;20044;-73
2022/01/12 12:07:24;;;;;;;23.60;11.45;;;;;;;;;;5065437;28;20091;-74
2022/01/12 12:09:57;;;;;;;39.10;14.60;;;;;;;;;;5050763;28;20128;-74
2022/01/12 12:12:31;;;;;;;22.67;11.35;;;;;;;;;;5048131;28;20478;-74
2022/01/12 12:14:58;;;;;;;30.25;12.77;;;;;;;;;;5048686;28;20928;-75
2022/01/12 12:17:26;;;;;;;34.38;12.95;;;;;;;;;;5047189;28;20036;-74
2022/01/12 12:19:52;;;;;;;22.83;11.88;;;;;;;;;;5051258;28;20029;-74
2022/01/12 12:22:25;;;;;;;29.75;13.32;;;;;;;;;;5067567;28;20041;-73
2022/01/12 12:25:17;;;;;;;24.13;10.88;;;;;;;;;;5050490;28;20036;-74
2022/01/12 12:27:46;;;;;;;24.67;10.45;;;;;;;;;;5046801;28;20531;-78
2022/01/12 12:30:16;;;;;;;33.03;10.40;;;;;;;;;;5052814;28;20124;-74
2022/01/12 12:33:07;;;;;;;19.88;10.07;;;;;;;;;;5052432;28;20523;-73
2022/01/12 12:35:34;;;;;;;21.95;9.65;;;;;;;;;;5038667;28;20131;-74
2022/01/12 12:38:03;;;;;;;23.67;9.68;;;;;;;;;;5050506;28;20032;-74
2022/01/12 12:40:29;;;;;;;24.60;10.77;;;;;;;;;;5050813;28;20033;-73
2022/01/12 12:43:07;;;;;;;21.80;8.88;;;;;;;;;;5067193;28;20374;-74
2022/01/12 12:45:40;;;;;;;;;;;;;;;;;;5052194;28;20039;-74
2022/01/12 12:48:07;;;;;;;20.50;9.80;;;;;;;;;;5051668;28;20617;-74
2022/01/12 12:50:33;;;;;;;;;;;;;;;;;;5050197;28;20033;-74
2022/01/12 12:53:00;;;;;;;25.30;13.18;;;;;;;;;;5051507;28;19924;-74
2022/01/12 12:55:26;;;;;;;31.52;11.82;;;;;;;;;;5067253;28;20056;-73
2022/01/12 12:57:53;;;;;;;29.80;14.05;;;;;;;;;;5050588;28;20068;-73
2022/01/12 13:00:27;;;;;;;24.75;11.13;;;;;;;;;;5050476;28;20092;-74
2022/01/12 13:02:57;;;;;;;28.67;11.38;;;;;;;;;;5049786;28;20072;-73
2022/01/12 13:05:25;;;;;;;21.25;10.00;;;;;;;;;;5046182;28;20478;-73
2022/01/12 13:07:51;;;;;;;22.50;8.82;;;;;;;;;;5048764;28;20059;-75
2022/01/12 13:10:21;;;;;;;23.73;10.23;;;;;;;;;;5050226;28;20477;-74
2022/01/12 13:12:49;;;;;;;27.70;9.73;;;;;;;;;;5048364;28;20048;-73
2022/01/12 13:15:22;;;;;;;22.90;9.73;;;;;;;;;;5015112;28;20435;-71
2022/01/12 13:17:48;;;;;;;25.17;11.35;;;;;;;;;;5045195;28;20444;-74
2022/01/12 13:22:49;;;;;;;28.80;11.20;;;;;;;;;;5031917;28;20049;-74
2022/01/12 13:25:16;;;;;;;17.75;9.80;;;;;;;;;;5048240;28;20120;-74
2022/01/12 13:27:42;;;;;;;24.15;11.27;;;;;;;;;;5031231;28;20045;-74
2022/01/12 13:30:10;;;;;;;21.17;10.40;;;;;;;;;;5031628;28;20529;-73
2022/01/12 13:32:37;;;;;;;16.15;8.48;;;;;;;;;;5028838;28;20041;-74
2022/01/12 13:35:08;;;;;;;16.83;8.60;;;;;;;;;;5030316;28;20497;-75
2022/01/12 13:37:33;;;;;;;20.20;9.43;;;;;;;;;;5029947;28;20045;-75
2022/01/12 13:40:09;;;;;;;14.53;8.40;;;;;;;;;;5047978;28;20055;-74
2022/01/12 13:42:50;;;;;;;14.88;8.25;;;;;;;;;;5045519;28;20047;-74
2022/01/12 13:45:18;;;;;;;23.65;9.90;;;;;;;;;;5048818;28;20033;-74
2022/01/12 13:47:53;;;;;;;20.70;9.10;;;;;;;;;;5046079;28;20485;-74
2022/01/12 13:50:19;;;;;;;16.25;8.73;;;;;;;;;;5049661;28;20051;-73
2022/01/12 13:52:53;;;;;;;22.05;10.07;;;;;;;;;;5050615;28;20041;-74
2022/01/12 13:55:19;;;;;;;24.83;11.50;;;;;;;;;;5050648;28;20379;-74
2022/01/12 13:57:44;;;;;;;33.67;13.77;;;;;;;;;;5050211;28;20048;-74
2022/01/12 14:00:19;;;;;;;38.67;18.47;;;;;;;;;;5050261;28;20048;-74
2022/01/12 14:02:45;;;;;;;48.28;22.70;;;;;;;;;;5040804;28;20025;-75
2022/01/12 14:05:17;;;;;;;48.53;20.42;;;;;;;;;;5048812;28;20539;-74
2022/01/12 14:07:58;;;;;;;34.65;16.83;;;;;;;;;;5064731;28;20037;-74
2022/01/12 14:10:30;;;;;;;24.65;13.18;;;;;;;;;;5049548;28;20052;-71
2022/01/12 14:12:55;;;;;;;24.33;12.68;;;;;;;;;;5048834;28;20064;-74
2022/01/12 14:15:26;;;;;;;25.13;12.87;;;;;;;;;;5050221;28;20389;-73
2022/01/12 14:17:52;;;;;;;25.85;12.68;;;;;;;;;;5064256;28;20055;-75
2022/01/12 14:20:36;;;;;;;25.25;12.20;;;;;;;;;;5049748;28;20155;-74
2022/01/12 14:23:06;;;;;;;31.25;13.30;;;;;;;;;;5048975;28;20400;-74
2022/01/12 14:25:48;;;;;;;25.10;12.73;;;;;;;;;;5063912;28;20032;-78
2022/01/12 14:28:28;;;;;;;26.23;12.77;;;;;;;;;;5041937;28;20049;-76
2022/01/12 14:30:55;;;;;;;31.05;14.00;;;;;;;;;;5047146;28;20025;-74
2022/01/12 14:33:21;;;;;;;27.88;13.18;;;;;;;;;;5049437;28;20044;-73
2022/01/12 14:35:47;;;;;;;30.83;13.97;;;;;;;;;;5049075;28;20377;-76
2022/01/12 14:38:13;;;;;;;33.57;18.13;;;;;;;;;;5047892;28;20029;-74
2022/01/12 14:40:38;;;;;;;30.80;18.57;;;;;;;;;;5048867;28;20396;-74
2022/01/12 14:43:07;;;;;;;31.37;19.07;;;;;;;;;;5063948;28;20377;-75
2022/01/12 14:45:34;;;;;;;36.15;18.92;;;;;;;;;;5062914;28;20029;-74
2022/01/12 14:48:06;;;;;;;32.22;16.55;;;;;;;;;;5063579;28;20082;-74
2022/01/12 14:50:33;;;;;;;28.52;14.77;;;;;;;;;;5048282;28;20029;-74
2022/01/12 14:52:59;;;;;;;29.20;14.20;;;;;;;;;;5048557;28;20064;-74
2022/01/12 14:55:25;;;;;;;27.38;13.07;;;;;;;;;;5064475;28;20037;-74
2022/01/12 14:57:52;;;;;;;25.17;12.27;;;;;;;;;;5044279;28;20052;-74
2022/01/12 15:00:24;;;;;;;;;;;;;;;;;;5048692;28;20032;-75
2022/01/12 15:02:52;;;;;;;31.08;15.30;;;;;;;;;;5046457;28;19923;-77
2022/01/12 15:05:17;;;;;;;38.20;16.42;;;;;;;;;;5040977;28;20036;-74
2022/01/12 15:07:43;;;;;;;37.87;16.17;;;;;;;;;;5048402;28;20032;-73
2022/01/12 15:10:08;;;;;;;38.27;16.63;;;;;;;;;;5047906;28;20381;-74
2022/01/12 15:12:38;;;;;;;37.63;17.47;;;;;;;;;;5038137;28;20056;-74
2022/01/12 15:15:09;;;;;;;31.20;17.42;;;;;;;;;;5048087;28;20041;-74
2022/01/12 15:17:36;;;;;;;39.22;19.92;;;;;;;;;;5049478;28;20079;-75
2022/01/12 15:20:07;;;;;;;48.17;19.25;;;;;;;;;;5045040;28;20457;-73
2022/01/12 15:22:43;;;;;;;43.45;19.85;;;;;;;;;;5048266;28;20141;-76
2022/01/12 15:25:10;;;;;;;37.30;19.02;;;;;;;;;;5044416;28;20029;-74
2022/01/12 15:27:36;;;;;;;42.38;18.98;;;;;;;;;;5064191;28;20045;-74
2022/01/12 15:30:03;;;;;;;48.47;21.93;;;;;;;;;;5048334;28;20446;-74
2022/01/12 15:32:29;;;;;;;42.38;18.35;;;;;;;;;;5048677;28;20041;-74
2022/01/12 15:34:56;;;;;;;47.00;20.00;;;;;;;;;;5048053;28;20090;-74
2022/01/12 15:37:21;;;;;;;;;;;;;;;;;;5048949;28;20501;-74
2022/01/12 15:39:47;;;;;;;37.10;18.23;;;;;;;;;;5064451;28;20015;-74
2022/01/12 15:42:12;;;;;;;42.80;17.33;;;;;;;;;;5048838;28;20041;-74
2022/01/12 15:44:38;;;;;;;46.80;18.07;;;;;;;;;;5048547;28;20044;-74
2022/01/12 15:47:03;;;;;;;41.17;16.60;;;;;;;;;;5048855;28;20154;-74
2022/01/12 15:49:29;;;;;;;36.53;17.40;;;;;;;;;;5048734;28;20033;-73
2022/01/12 15:51:56;;;;;;;41.70;17.07;;;;;;;;;;5048533;28;20033;-73
2022/01/12 15:54:22;;;;;;;39.03;17.80;;;;;;;;;;5057211;28;20048;-74
2022/01/12 15:56:48;;;;;;;51.07;19.77;;;;;;;;;;5048697;28;20049;-74